Time;durP1;ratioP1;P1;durP2;ratioP2;P2;SDS_P1;SDS_P2;PMS_P1;PMS_P2;Temp;Humidity;BMP_temperature;BMP_pressure;BME280_temperature;BME280_humidity;BME280_pressure;Samples;Min_cycle;Max_cycle;Signal;HPM_P1;HPM_P2
2023/04/09 00:01:34;;;;;;;20.15;8.73;;;;;;;9.56;65.20;100719.66;5015257;28;20045;-85
2023/04/09 00:04:01;;;;;;;19.35;8.30;;;;;;;9.56;65.65;100723.16;4984475;28;20060;-85
2023/04/09 00:06:28;;;;;;;17.48;7.50;;;;;;;9.54;66.09;100713.59;5013666;28;20417;-85
2023/04/09 00:08:55;;;;;;;17.23;7.65;;;;;;;9.55;65.99;100712.69;5010018;28;20129;-85
2023/04/09 00:11:21;;;;;;;26.73;8.88;;;;;;;9.57;65.84;100706.31;4968791;28;20073;-85
2023/04/09 00:13:48;;;;;;;20.75;8.73;;;;;;;9.59;65.31;100711.47;5002080;28;20049;-86
2023/04/09 00:16:15;;;;;;;19.73;8.70;;;;;;;9.61;65.15;100703.44;4970053;28;20064;-86
2023/04/09 00:18:42;;;;;;;20.55;8.52;;;;;;;9.62;64.98;100700.69;5006806;28;20061;-86
2023/04/09 00:21:09;;;;;;;24.55;8.77;;;;;;;9.72;64.79;100709.69;5001982;28;20038;-85
2023/04/09 00:23:35;;;;;;;20.33;8.70;;;;;;;9.73;64.43;100703.41;5000023;28;20059;-86
2023/04/09 00:26:02;;;;;;;20.67;9.60;;;;;;;9.74;64.04;100704.25;4998176;28;20389;-85
2023/04/09 00:28:29;;;;;;;22.00;10.75;;;;;;;9.71;63.68;100704.47;4972299;28;20111;-86
2023/04/09 00:30:56;;;;;;;25.38;10.35;;;;;;;9.67;63.77;100700.38;5001501;28;20041;-85
2023/04/09 00:33:23;;;;;;;26.15;9.85;;;;;;;9.64;63.94;100700.56;5015573;28;20116;-85
2023/04/09 00:35:50;;;;;;;24.70;10.23;;;;;;;9.53;64.29;100701.31;5014403;28;20045;-85
2023/04/09 00:38:16;;;;;;;23.55;10.27;;;;;;;9.50;64.44;100688.28;4985637;28;20099;-85
2023/04/09 00:40:48;;;;;;;24.92;9.93;;;;;;;9.48;64.48;100701.63;4974128;28;20515;-85
2023/04/09 00:43:16;;;;;;;23.33;9.98;;;;;;;9.43;64.92;100695.81;4986146;28;20404;-85
2023/04/09 00:45:44;;;;;;;22.85;10.02;;;;;;;9.39;65.02;100693.47;5000000;28;20062;-85
2023/04/09 00:48:15;;;;;;;24.90;9.88;;;;;;;9.35;65.05;100693.69;4987134;28;20081;-86
2023/04/09 00:50:41;;;;;;;24.33;10.10;;;;;;;9.40;64.99;100700.50;5014823;28;20546;-86
2023/04/09 00:53:09;;;;;;;26.15;10.77;;;;;;;9.44;64.74;100691.34;4966622;28;20116;-86
2023/04/09 00:55:39;;;;;;;22.65;10.88;;;;;;;9.35;64.85;100699.00;5016660;28;20042;-86
2023/04/09 00:58:06;;;;;;;23.25;10.02;;;;;;;9.34;65.32;100697.31;5002847;28;20164;-85
2023/04/09 01:00:32;;;;;;;23.83;8.98;;;;;;;9.31;65.54;100694.00;5001236;28;20064;-85
2023/04/09 01:02:59;;;;;;;24.85;10.32;;;;;;;9.31;65.60;100700.19;4974706;28;20132;-86
2023/04/09 01:05:32;;;;;;;22.77;9.38;;;;;;;9.23;66.44;100696.34;5016179;28;20496;-86
2023/04/09 01:08:44;;;;;;;21.75;9.27;;;;;;;9.16;67.38;100700.38;4999247;28;20150;-85
2023/04/09 01:11:31;;;;;;;25.77;10.45;;;;;;;9.12;66.31;100697.09;4960834;28;20042;-86
2023/04/09 01:14:05;;;;;;;27.13;11.43;;;;;;;9.18;65.92;100701.97;4980815;28;20104;-86
2023/04/09 01:16:35;;;;;;;24.80;9.82;;;;;;;9.22;65.76;100697.31;5005325;28;20099;-85
2023/04/09 01:19:12;;;;;;;23.70;10.13;;;;;;;9.17;65.52;100684.38;5014430;28;20053;-86
2023/04/09 01:21:40;;;;;;;28.45;10.38;;;;;;;9.24;65.57;100692.75;4982889;28;20041;-86
2023/04/09 01:24:41;;;;;;;25.73;10.18;;;;;;;9.17;65.62;100688.84;4981489;28;20052;-85
2023/04/09 01:27:10;;;;;;;28.80;11.02;;;;;;;9.18;65.96;100687.88;4980477;28;20107;-85
2023/04/09 01:29:50;;;;;;;29.30;11.18;;;;;;;9.19;65.65;100694.88;5015853;28;20565;-86
2023/04/09 01:32:18;;;;;;;27.58;11.10;;;;;;;9.22;65.65;100698.16;5018180;28;20497;-86
2023/04/09 01:34:46;;;;;;;24.17;11.15;;;;;;;9.28;65.52;100697.72;5014794;28;20046;-86
2023/04/09 01:37:14;;;;;;;26.05;10.73;;;;;;;9.26;65.44;100698.78;4986240;28;20424;-86
2023/04/09 01:39:41;;;;;;;33.40;11.93;;;;;;;9.24;65.28;100700.72;4993080;28;20076;-86
2023/04/09 01:42:10;;;;;;;28.25;10.82;;;;;;;9.25;64.84;100705.03;4985367;28;20080;-85
2023/04/09 01:44:40;;;;;;;28.30;12.05;;;;;;;9.19;64.62;100694.88;5014330;28;20049;-85
2023/04/09 01:47:08;;;;;;;28.90;11.40;;;;;;;9.17;64.88;100702.09;5016351;28;20045;-85
2023/04/09 01:49:35;;;;;;;30.40;12.23;;;;;;;9.20;64.94;100701.88;4968561;28;20398;-86
2023/04/09 01:52:02;;;;;;;31.42;11.30;;;;;;;9.20;64.76;100696.56;5015039;28;20081;-85
2023/04/09 01:54:29;;;;;;;28.15;11.68;;;;;;;9.20;64.62;100705.34;4998620;28;20611;-85
2023/04/09 01:56:56;;;;;;;31.88;12.27;;;;;;;9.13;65.17;100696.13;4989870;28;20140;-85
2023/04/09 01:59:23;;;;;;;26.70;11.75;;;;;;;8.99;65.69;100699.72;5003630;28;20057;-85
2023/04/09 02:01:57;;;;;;;31.45;11.60;;;;;;;8.93;65.42;100700.16;5010365;28;20050;-85
2023/04/09 02:04:36;;;;;;;30.52;12.80;;;;;;;8.91;65.39;100697.59;5017736;28;20569;-85
2023/04/09 02:07:14;;;;;;;24.98;10.50;;;;;;;8.88;65.44;100702.28;4972790;28;20470;-85
2023/04/09 02:09:43;;;;;;;28.73;11.43;;;;;;;8.88;66.15;100700.47;5013489;28;20041;-85
2023/04/09 02:12:12;;;;;;;29.50;11.23;;;;;;;8.79;66.14;100705.53;5006705;28;20443;-85
2023/04/09 02:14:40;;;;;;;32.75;12.63;;;;;;;8.87;65.56;100706.69;4971859;28;20061;-85
2023/04/09 02:17:08;;;;;;;28.35;11.27;;;;;;;8.84;65.51;100701.63;5001653;28;20491;-85
2023/04/09 02:19:42;;;;;;;34.50;12.20;;;;;;;8.82;64.92;100705.31;5015161;28;20104;-85
2023/04/09 02:22:09;;;;;;;32.53;12.40;;;;;;;8.83;65.21;100701.75;4980846;28;20057;-85
2023/04/09 02:24:36;;;;;;;31.38;12.40;;;;;;;8.83;65.02;100713.16;5010770;28;20366;-86
2023/04/09 02:27:04;;;;;;;31.30;12.73;;;;;;;8.83;65.23;100707.88;4965123;28;20038;-85
2023/04/09 02:29:31;;;;;;;29.63;12.43;;;;;;;8.79;65.14;100710.81;4983831;28;20988;-86
2023/04/09 02:31:58;;;;;;;30.88;11.73;;;;;;;8.64;65.65;100707.41;5029879;28;20450;-85
2023/04/09 02:34:26;;;;;;;28.40;12.15;;;;;;;8.62;65.79;100710.13;4987105;28;20050;-85
2023/04/09 02:36:52;;;;;;;29.48;12.13;;;;;;;8.60;65.35;100705.88;5004289;28;20165;-85
2023/04/09 02:39:19;;;;;;;29.88;11.90;;;;;;;8.66;65.60;100708.16;4986840;28;20041;-86
2023/04/09 02:41:46;;;;;;;33.10;12.45;;;;;;;8.47;65.78;100706.72;4988455;28;20049;-85
2023/04/09 02:44:12;;;;;;;31.38;12.20;;;;;;;8.51;65.84;100694.13;5007887;28;20049;-86
2023/04/09 02:46:42;;;;;;;29.27;11.73;;;;;;;8.34;66.48;100699.63;5013019;28;20453;-86
2023/04/09 02:49:09;;;;;;;30.15;12.13;;;;;;;8.24;66.62;100697.63;4964875;28;20076;-85
2023/04/09 02:51:36;;;;;;;29.70;12.23;;;;;;;8.32;66.63;100699.75;5001237;28;20034;-86
2023/04/09 02:54:03;;;;;;;24.98;10.82;;;;;;;8.32;66.40;100704.19;4997379;28;20553;-85
2023/04/09 02:56:30;;;;;;;28.33;12.00;;;;;;;8.25;66.75;100701.94;5013925;28;20593;-86
2023/04/09 02:58:57;;;;;;;29.15;12.77;;;;;;;8.30;66.58;100701.66;4987975;28;20041;-86
2023/04/09 03:01:24;;;;;;;29.95;12.77;;;;;;;8.23;66.89;100703.00;5002249;28;20112;-86
2023/04/09 03:03:50;;;;;;;31.67;12.82;;;;;;;8.27;66.71;100699.22;5004489;28;20128;-85
2023/04/09 03:06:17;;;;;;;29.95;12.95;;;;;;;8.24;67.04;100699.38;5012562;28;20136;-85
2023/04/09 03:08:44;;;;;;;31.67;12.50;;;;;;;8.22;67.07;100694.22;5009169;28;20046;-86
2023/04/09 03:11:11;;;;;;;32.28;12.25;;;;;;;8.19;66.91;100693.53;4979128;28;20045;-85
2023/04/09 03:13:38;;;;;;;30.85;12.48;;;;;;;8.25;66.69;100688.72;5004659;28;20480;-85
2023/04/09 03:16:05;;;;;;;31.50;13.05;;;;;;;8.27;66.94;100685.97;5009621;28;20034;-86
2023/04/09 03:18:31;;;;;;;28.90;12.32;;;;;;;8.20;67.18;100684.69;5003450;28;20651;-85
2023/04/09 03:20:58;;;;;;;31.08;11.88;;;;;;;8.20;67.14;100689.97;4984749;28;20543;-85
2023/04/09 03:23:29;;;;;;;35.63;13.07;;;;;;;8.25;67.13;100693.16;5012229;28;20073;-85
2023/04/09 03:26:02;;;;;;;30.23;13.27;;;;;;;8.14;67.21;100691.22;5003663;28;20045;-85
2023/04/09 03:28:33;;;;;;;26.85;11.05;;;;;;;8.23;67.22;100690.59;5010424;28;20045;-85
2023/04/09 03:31:00;;;;;;;26.30;12.02;;;;;;;8.20;67.71;100689.97;4986452;28;20065;-85
2023/04/09 03:33:28;;;;;;;27.90;11.27;;;;;;;8.17;67.83;100691.00;4982476;28;20136;-86
2023/04/09 03:35:57;;;;;;;26.42;11.43;;;;;;;8.16;68.18;100697.22;4981210;28;20053;-85
2023/04/09 03:38:47;;;;;;;31.13;12.05;;;;;;;8.17;67.93;100695.47;5004061;28;20482;-85
2023/04/09 03:41:25;;;;;;;26.50;11.30;;;;;;;8.13;68.59;100691.31;5002302;28;20057;-85
2023/04/09 03:43:53;;;;;;;24.92;10.95;;;;;;;8.11;68.83;100701.97;5009317;28;20057;-85
2023/04/09 03:46:24;;;;;;;27.00;11.45;;;;;;;8.19;68.41;100688.25;4967403;28;20046;-86
2023/04/09 03:48:51;;;;;;;29.90;11.73;;;;;;;8.16;68.62;100694.59;4984075;28;20053;-86
2023/04/09 03:51:18;;;;;;;27.60;11.88;;;;;;;8.21;68.19;100689.84;5003126;28;20489;-86
2023/04/09 03:53:51;;;;;;;26.27;12.20;;;;;;;8.17;68.63;100688.38;4982948;28;20111;-85
2023/04/09 03:56:18;;;;;;;31.90;11.93;;;;;;;8.18;68.40;100691.84;5011702;28;20472;-85
2023/04/09 03:58:47;;;;;;;27.80;10.75;;;;;;;8.12;68.58;100698.41;5002416;28;20129;-85
2023/04/09 04:01:15;;;;;;;27.52;11.27;;;;;;;8.15;68.79;100692.06;4998959;28;20516;-86
2023/04/09 04:03:52;;;;;;;28.65;12.35;;;;;;;8.10;68.95;100687.06;5022699;28;20049;-86
2023/04/09 04:06:24;;;;;;;28.75;12.68;;;;;;;8.10;68.48;100687.06;4972707;28;20050;-85
2023/04/09 04:09:08;;;;;;;29.35;12.95;;;;;;;8.09;68.59;100695.09;4988918;28;20042;-85
2023/04/09 04:11:47;;;;;;;25.48;10.93;;;;;;;8.14;68.38;100691.22;4991162;28;20704;-85
2023/04/09 04:14:14;;;;;;;31.10;12.07;;;;;;;8.13;68.45;100689.50;4983885;28;20050;-85
2023/04/09 04:16:45;;;;;;;27.38;11.05;;;;;;;8.06;69.46;100698.78;4999963;28;20046;-85
2023/04/09 04:19:15;;;;;;;29.75;11.73;;;;;;;8.00;69.73;100694.72;4985646;28;20378;-85
2023/04/09 04:21:46;;;;;;;29.63;11.60;;;;;;;7.98;70.03;100695.78;5032617;28;20210;-85
2023/04/09 04:24:14;;;;;;;31.63;11.40;;;;;;;7.97;70.57;100702.03;5005757;28;20057;-85
2023/04/09 04:26:40;;;;;;;24.50;10.65;;;;;;;7.94;69.97;100703.06;4991178;28;20041;-85
2023/04/09 04:29:10;;;;;;;27.02;10.25;;;;;;;7.99;69.90;100705.44;5013191;28;20137;-85
2023/04/09 04:31:49;;;;;;;29.10;12.27;;;;;;;8.05;69.57;100702.38;5016409;28;20128;-85
2023/04/09 04:34:19;;;;;;;31.92;11.48;;;;;;;8.02;69.72;100702.59;5014724;28;20053;-85
2023/04/09 04:36:52;;;;;;;26.90;11.57;;;;;;;8.07;69.52;100704.94;5005419;28;20397;-85
2023/04/09 04:39:19;;;;;;;25.42;11.07;;;;;;;8.07;69.76;100704.94;5002109;28;20048;-85
2023/04/09 04:41:52;;;;;;;25.95;11.07;;;;;;;8.02;70.11;100714.00;5013999;28;20045;-85
2023/04/09 04:44:24;;;;;;;31.15;11.90;;;;;;;8.05;70.22;100713.81;5016120;28;20057;-85
2023/04/09 04:46:59;;;;;;;27.05;11.55;;;;;;;8.07;69.95;100708.44;5001807;28;20467;-85
2023/04/09 04:49:25;;;;;;;27.92;11.20;;;;;;;8.04;69.84;100708.63;4969958;28;20054;-85
2023/04/09 04:51:52;;;;;;;28.45;11.98;;;;;;;8.02;70.23;100715.81;4976493;28;20568;-86
2023/04/09 04:54:19;;;;;;;33.42;13.05;;;;;;;8.01;69.83;100714.09;4984784;28;20103;-85
2023/04/09 04:56:50;;;;;;;28.50;12.60;;;;;;;7.97;70.71;100715.25;4984772;28;20050;-85
2023/04/09 04:59:36;;;;;;;28.58;11.07;;;;;;;7.92;70.56;100714.69;4995804;28;20069;-85
2023/04/09 05:02:07;;;;;;;28.80;12.32;;;;;;;7.90;71.17;100716.59;4997359;28;20042;-85
2023/04/09 05:04:45;;;;;;;28.58;12.32;;;;;;;7.90;71.80;100717.44;5005147;28;20056;-85
2023/04/09 05:07:15;;;;;;;30.27;11.43;;;;;;;7.91;71.64;100721.78;4954914;28;20088;-85
2023/04/09 05:09:48;;;;;;;28.42;11.55;;;;;;;7.92;71.59;100715.53;4986686;28;20696;-85
2023/04/09 05:12:16;;;;;;;31.42;12.38;;;;;;;7.92;71.26;100715.53;4987920;28;20038;-85
2023/04/09 05:14:48;;;;;;;;;;;;;;;7.71;72.57;100717.75;4983773;28;20101;-86
2023/04/09 05:17:15;;;;;;;28.65;12.00;;;;;;;7.90;71.88;100716.59;4979234;28;20372;-86
2023/04/09 05:19:50;;;;;;;30.55;12.43;;;;;;;7.88;71.16;100716.66;5005814;28;20374;-85
2023/04/09 05:22:18;;;;;;;28.60;11.88;;;;;;;7.89;71.31;100726.31;5005893;28;20049;-85
2023/04/09 05:24:45;;;;;;;32.63;11.88;;;;;;;7.97;70.73;100715.25;5002015;28;20057;-85
2023/04/09 05:27:13;;;;;;;30.77;12.30;;;;;;;7.99;71.01;100719.50;4997598;28;20046;-86
2023/04/09 05:29:40;;;;;;;30.30;12.98;;;;;;;8.01;71.15;100722.03;4997107;28;20053;-85
2023/04/09 05:32:08;;;;;;;29.58;11.98;;;;;;;8.05;70.68;100718.25;4999781;28;20049;-86
2023/04/09 05:34:38;;;;;;;30.27;12.55;;;;;;;8.10;70.91;100723.25;5018579;28;20436;-85
2023/04/09 05:37:04;;;;;;;39.58;15.68;;;;;;;8.09;70.65;100716.25;5000564;28;20548;-86
2023/04/09 05:39:32;;;;;;;34.17;14.55;;;;;;;8.10;70.71;100717.97;4979870;28;20046;-85
2023/04/09 05:42:00;;;;;;;33.40;14.13;;;;;;;8.13;70.59;100715.97;5012246;28;20058;-86
2023/04/09 05:44:43;;;;;;;41.63;14.93;;;;;;;8.15;70.55;100719.34;5013221;28;20045;-85
2023/04/09 05:47:14;;;;;;;41.13;16.25;;;;;;;8.14;70.58;100720.31;4995772;28;20042;-86
2023/04/09 05:49:50;;;;;;;39.90;16.42;;;;;;;8.16;70.80;100718.41;4985878;28;20148;-84
2023/04/09 05:52:18;;;;;;;40.65;15.50;;;;;;;8.11;70.80;100719.66;4967617;28;20057;-85
2023/04/09 05:54:45;;;;;;;43.60;17.38;;;;;;;8.16;70.43;100722.84;5026716;28;20069;-84
2023/04/09 05:57:16;;;;;;;40.15;15.85;;;;;;;8.26;70.55;100716.84;4971704;28;20069;-85
2023/04/09 05:59:50;;;;;;;39.42;15.95;;;;;;;8.27;70.55;100718.56;4989171;28;20171;-84
2023/04/09 06:02:17;;;;;;;42.20;16.45;;;;;;;8.24;70.97;100724.06;4985041;28;20056;-84
2023/04/09 06:04:44;;;;;;;44.05;15.68;;;;;;;8.26;70.69;100722.16;4970045;28;20490;-84
2023/04/09 06:07:13;;;;;;;44.78;18.38;;;;;;;8.32;70.33;100715.63;5013634;28;20551;-84
2023/04/09 06:09:43;;;;;;;40.85;16.40;;;;;;;8.41;70.59;100719.50;4985652;28;20091;-84
2023/04/09 06:12:09;;;;;;;45.00;15.63;;;;;;;8.42;70.46;100721.19;4997360;28;20051;-84
2023/04/09 06:14:36;;;;;;;42.95;17.35;;;;;;;8.45;70.40;100734.25;5000643;28;20099;-84
2023/04/09 06:17:04;;;;;;;40.72;15.77;;;;;;;8.51;70.51;100733.00;4993862;28;20441;-84
2023/04/09 06:19:31;;;;;;;41.38;16.55;;;;;;;8.49;70.78;100735.72;5013313;28;20666;-84
2023/04/09 06:21:57;;;;;;;46.72;18.35;;;;;;;8.51;70.27;100738.28;5011674;28;20405;-84
2023/04/09 06:24:24;;;;;;;39.28;16.55;;;;;;;8.53;70.39;100731.09;5002758;28;20468;-84
2023/04/09 06:26:51;;;;;;;44.78;16.48;;;;;;;8.59;70.66;100730.69;4999597;28;20775;-84
2023/04/09 06:29:17;;;;;;;44.40;18.08;;;;;;;8.60;70.65;100727.06;4996456;28;20083;-84
2023/04/09 06:31:45;;;;;;;40.63;16.50;;;;;;;8.65;70.32;100728.50;5015790;28;20875;-84
2023/04/09 06:34:12;;;;;;;41.13;16.70;;;;;;;8.68;70.06;100730.09;4997537;28;20045;-84
2023/04/09 06:36:39;;;;;;;43.42;17.08;;;;;;;8.67;70.26;100737.16;5011533;28;20084;-84
2023/04/09 06:39:06;;;;;;;45.40;17.33;;;;;;;8.74;70.21;100732.31;4993128;28;20052;-84
2023/04/09 06:41:32;;;;;;;41.45;16.63;;;;;;;8.69;70.59;100734.41;5012719;28;20042;-84
2023/04/09 06:44:05;;;;;;;38.17;15.65;;;;;;;8.71;70.48;100732.53;4993806;28;20046;-84
2023/04/09 06:46:32;;;;;;;40.15;16.23;;;;;;;8.80;70.21;100739.00;5009289;28;20041;-84
2023/04/09 06:48:59;;;;;;;40.47;17.40;;;;;;;8.84;70.22;100743.16;5008287;28;20396;-84
2023/04/09 06:51:26;;;;;;;43.88;17.63;;;;;;;8.82;70.11;100740.59;5007620;28;20050;-84
2023/04/09 06:53:53;;;;;;;45.95;17.42;;;;;;;8.85;70.10;100739.53;5010975;28;20053;-84
2023/04/09 06:56:20;;;;;;;47.55;17.85;;;;;;;8.77;70.57;100739.19;5010062;28;20069;-84
2023/04/09 06:58:47;;;;;;;43.85;18.13;;;;;;;8.77;70.81;100741.84;5011658;28;20143;-84
2023/04/09 07:01:16;;;;;;;44.90;18.73;;;;;;;8.79;70.97;100734.66;5012397;28;20057;-84
2023/04/09 07:03:42;;;;;;;41.15;18.08;;;;;;;8.87;70.50;100740.28;5026094;28;20509;-84
2023/04/09 07:06:09;;;;;;;43.03;16.38;;;;;;;8.93;70.54;100742.53;4985835;28;20049;-84
2023/04/09 07:08:36;;;;;;;48.53;17.88;;;;;;;8.99;70.41;100744.78;5011745;28;20494;-84
2023/04/09 07:11:02;;;;;;;44.85;18.08;;;;;;;8.98;70.74;100745.72;4979679;28;20096;-84
2023/04/09 07:13:30;;;;;;;45.80;18.05;;;;;;;8.99;70.87;100744.78;5007982;28;20108;-85
2023/04/09 07:15:56;;;;;;;39.75;17.10;;;;;;;9.07;70.59;100744.25;4996259;28;20053;-85
2023/04/09 07:18:23;;;;;;;43.83;16.42;;;;;;;9.17;70.96;100753.28;4980037;28;20751;-85
2023/04/09 07:20:51;;;;;;;43.78;18.02;;;;;;;9.19;71.33;100754.03;4987087;28;20579;-85
2023/04/09 07:23:18;;;;;;;44.83;17.02;;;;;;;9.28;70.88;100752.53;4992788;28;20042;-84
2023/04/09 07:25:44;;;;;;;45.78;18.88;;;;;;;9.28;70.75;100750.72;4999568;28;20108;-84
2023/04/09 07:28:11;;;;;;;46.60;18.90;;;;;;;9.29;70.63;100755.09;5000503;28;20053;-84
2023/04/09 07:30:39;;;;;;;44.92;18.65;;;;;;;9.28;71.16;100757.84;4956040;28;20223;-85
2023/04/09 07:33:05;;;;;;;45.17;19.55;;;;;;;9.23;71.10;100758.16;4996375;28;20145;-85
2023/04/09 07:35:33;;;;;;;42.67;17.63;;;;;;;9.23;70.96;100749.34;5011075;28;20045;-85
2023/04/09 07:38:00;;;;;;;45.72;17.20;;;;;;;9.29;70.78;100747.13;5009784;28;20493;-85
2023/04/09 07:40:27;;;;;;;42.05;16.67;;;;;;;9.38;70.90;100755.41;4993797;28;20056;-84
2023/04/09 07:42:54;;;;;;;43.63;17.25;;;;;;;9.29;71.23;100754.25;5005386;28;20046;-84
2023/04/09 07:45:21;;;;;;;39.90;17.40;;;;;;;9.43;70.89;100748.81;4980213;28;20052;-84
2023/04/09 07:47:47;;;;;;;42.28;16.48;;;;;;;9.55;70.86;100752.44;5010787;28;20508;-85
2023/04/09 07:50:15;;;;;;;39.40;16.08;;;;;;;9.64;70.55;100753.59;5024957;28;20124;-85
2023/04/09 07:52:41;;;;;;;36.17;15.63;;;;;;;9.73;69.70;100747.66;4997723;28;20049;-85
2023/04/09 07:55:08;;;;;;;38.45;16.05;;;;;;;9.77;69.59;100744.69;5001465;28;20045;-85
2023/04/09 07:57:35;;;;;;;38.95;15.95;;;;;;;9.86;69.66;100750.28;5006755;28;20054;-85
2023/04/09 08:00:03;;;;;;;33.40;14.68;;;;;;;9.88;69.04;100751.03;4995025;28;20057;-85
2023/04/09 08:02:38;;;;;;;35.28;15.10;;;;;;;9.89;68.71;100750.91;5009885;28;20046;-85
2023/04/09 08:05:06;;;;;;;34.08;14.88;;;;;;;9.92;68.46;100747.19;4992756;28;20045;-85
2023/04/09 08:07:33;;;;;;;29.90;13.80;;;;;;;10.00;68.67;100744.88;4984431;28;20122;-83
2023/04/09 08:10:00;;;;;;;36.10;13.90;;;;;;;10.05;68.74;100753.34;5024188;28;20045;-83
2023/04/09 08:12:27;;;;;;;27.60;12.25;;;;;;;10.09;68.43;100753.97;5020502;28;20406;-83
2023/04/09 08:14:53;;;;;;;34.75;14.30;;;;;;;10.16;68.08;100752.56;4997604;28;20044;-83
2023/04/09 08:17:21;;;;;;;25.55;12.80;;;;;;;10.21;67.54;100751.25;4986755;28;20712;-83
2023/04/09 08:19:48;;;;;;;32.95;13.45;;;;;;;10.27;67.60;100759.75;5009838;28;20485;-84
2023/04/09 08:22:15;;;;;;;26.63;12.57;;;;;;;10.30;66.79;100747.13;5005098;28;20045;-83
2023/04/09 08:24:42;;;;;;;27.00;13.07;;;;;;;10.32;66.31;100753.16;5009224;28;20057;-84
2023/04/09 08:27:09;;;;;;;27.27;13.52;;;;;;;10.39;66.25;100754.41;5024296;28;20057;-83
2023/04/09 08:29:38;;;;;;;29.88;12.90;;;;;;;10.41;65.99;100759.63;4994277;28;20053;-82
2023/04/09 08:32:04;;;;;;;29.13;13.30;;;;;;;10.45;65.48;100760.25;5023158;28;20046;-83
2023/04/09 08:34:31;;;;;;;31.60;13.85;;;;;;;10.51;65.36;100758.00;4971267;28;21403;-83
2023/04/09 08:36:59;;;;;;;27.75;12.77;;;;;;;10.53;65.49;100760.53;4991399;28;20038;-83
2023/04/09 08:39:25;;;;;;;32.50;14.23;;;;;;;10.56;65.49;100762.97;5024986;28;20647;-83
2023/04/09 08:41:53;;;;;;;31.85;13.52;;;;;;;10.57;64.87;100754.88;4993192;28;20069;-83
2023/04/09 08:44:20;;;;;;;30.35;13.32;;;;;;;10.62;65.45;100759.84;5014213;28;20046;-83
2023/04/09 08:46:47;;;;;;;29.88;13.93;;;;;;;10.62;64.83;100755.38;4992327;28;20517;-83
2023/04/09 08:49:14;;;;;;;28.15;13.00;;;;;;;10.68;64.53;100755.91;5028521;28;20468;-83
2023/04/09 08:51:45;;;;;;;30.35;13.57;;;;;;;10.71;64.86;100755.66;4999914;28;20404;-83
2023/04/09 08:54:14;;;;;;;32.53;13.15;;;;;;;10.73;64.54;100748.44;4996602;28;20408;-83
2023/04/09 08:56:41;;;;;;;25.00;10.90;;;;;;;10.78;64.80;100748.94;5015094;28;20464;-82
2023/04/09 08:59:08;;;;;;;29.75;12.85;;;;;;;10.78;64.24;100752.44;4978055;28;20046;-83
2023/04/09 09:01:35;;;;;;;28.50;13.07;;;;;;;10.83;64.02;100750.28;5026210;28;20038;-83
2023/04/09 09:04:07;;;;;;;31.63;14.80;;;;;;;10.80;62.98;100749.66;5011314;28;20050;-83
2023/04/09 09:06:38;;;;;;;29.95;13.05;;;;;;;10.79;63.24;100751.50;4994479;28;20056;-83
2023/04/09 09:09:05;;;;;;;26.25;13.98;;;;;;;10.83;63.24;100746.78;4996572;28;20711;-83
2023/04/09 09:11:40;;;;;;;28.45;12.05;;;;;;;10.79;62.30;100748.00;4987971;28;20151;-83
2023/04/09 09:14:11;;;;;;;24.50;11.85;;;;;;;10.77;62.29;100750.75;4977713;28;20053;-83
2023/04/09 09:16:41;;;;;;;24.98;11.05;;;;;;;10.83;63.26;100749.44;5012953;28;20041;-83
2023/04/09 09:19:29;;;;;;;24.55;12.27;;;;;;;10.80;62.54;100739.03;4995210;28;20045;-83
2023/04/09 09:21:58;;;;;;;25.65;11.77;;;;;;;10.89;62.91;100748.13;5025546;28;20045;-83
2023/04/09 09:24:25;;;;;;;19.45;10.48;;;;;;;10.86;61.56;100743.88;5028725;28;20056;-83
2023/04/09 09:26:53;;;;;;;20.48;10.35;;;;;;;10.87;61.80;100750.91;5016320;28;20045;-83
2023/04/09 09:29:20;;;;;;;19.30;9.25;;;;;;;10.88;61.83;100744.63;5031814;28;20046;-85
2023/04/09 09:31:48;;;;;;;22.77;11.50;;;;;;;10.87;61.22;100745.59;5013296;28;20049;-85
2023/04/09 09:34:16;;;;;;;24.02;10.35;;;;;;;10.90;61.30;100740.03;4987045;28;20450;-85
2023/04/09 09:36:43;;;;;;;22.90;11.32;;;;;;;10.99;60.88;100750.00;5012376;28;20420;-85
2023/04/09 09:39:12;;;;;;;17.70;8.68;;;;;;;11.02;58.41;100744.44;4981578;28;20042;-85
2023/04/09 09:41:40;;;;;;;19.45;9.02;;;;;;;11.00;58.88;100748.19;4989823;28;20095;-85
2023/04/09 09:44:08;;;;;;;18.63;9.50;;;;;;;10.99;58.79;100759.75;5003380;28;20790;-83
2023/04/09 09:46:37;;;;;;;19.58;9.88;;;;;;;11.03;58.82;100756.75;5015405;28;20049;-83
2023/04/09 09:49:04;;;;;;;16.70;8.40;;;;;;;11.04;58.76;100754.94;5026498;28;20080;-85
2023/04/09 09:51:32;;;;;;;17.48;7.90;;;;;;;11.05;58.55;100759.31;4994517;28;20509;-85
2023/04/09 09:54:00;;;;;;;19.55;10.00;;;;;;;11.03;57.85;100746.13;4988323;28;20052;-85
2023/04/09 09:56:34;;;;;;;17.52;8.00;;;;;;;11.05;55.42;100756.66;5016435;28;20057;-86
2023/04/09 09:59:20;;;;;;;17.10;8.90;;;;;;;10.98;54.94;100750.09;5022924;28;20796;-86
2023/04/09 10:01:52;;;;;;;18.17;9.05;;;;;;;11.03;56.79;100747.94;4999618;28;20063;-83
2023/04/09 10:04:20;;;;;;;15.75;8.60;;;;;;;11.06;57.13;100750.34;5024173;28;20144;-83
2023/04/09 10:06:47;;;;;;;17.80;9.88;;;;;;;11.05;55.26;100746.03;4997350;28;20576;-83
2023/04/09 10:09:14;;;;;;;16.23;8.90;;;;;;;11.11;54.66;100739.38;4999399;28;20042;-83
2023/04/09 10:11:46;;;;;;;16.83;9.20;;;;;;;11.06;54.58;100737.06;5018379;28;20504;-83
2023/04/09 10:14:13;;;;;;;17.33;8.53;;;;;;;11.07;55.93;100736.13;4983551;28;20053;-83
2023/04/09 10:16:40;;;;;;;17.35;8.68;;;;;;;11.15;56.24;100746.16;5013034;28;20112;-83
2023/04/09 10:19:12;;;;;;;14.70;9.05;;;;;;;11.16;54.87;100735.41;5026211;28;20407;-83
2023/04/09 10:21:44;;;;;;;13.95;8.10;;;;;;;11.14;54.58;100729.34;5023080;28;20049;-83
2023/04/09 10:24:11;;;;;;;13.10;7.38;;;;;;;11.20;55.16;100726.25;4980592;28;20112;-84
2023/04/09 10:26:43;;;;;;;14.02;7.20;;;;;;;11.23;54.37;100726.00;5012872;28;20758;-83
2023/04/09 10:29:13;;;;;;;17.08;8.55;;;;;;;11.26;54.18;100733.72;5010584;28;20052;-83
2023/04/09 10:31:49;;;;;;;15.18;7.72;;;;;;;11.25;51.78;100734.72;5004867;28;20046;-83
2023/04/09 10:34:26;;;;;;;15.50;8.02;;;;;;;11.28;51.95;100718.50;5011770;28;20052;-83
2023/04/09 10:36:58;;;;;;;10.35;6.03;;;;;;;11.31;53.33;100717.44;4984340;28;20069;-83
2023/04/09 10:39:40;;;;;;;13.88;7.70;;;;;;;11.33;50.35;100720.81;5024962;28;20321;-83
2023/04/09 10:42:11;;;;;;;14.63;7.78;;;;;;;11.37;50.94;100714.31;4982371;28;20405;-83
2023/04/09 10:44:40;;;;;;;12.05;5.95;;;;;;;11.43;52.17;100705.00;5031751;28;20041;-83
2023/04/09 10:47:08;;;;;;;12.05;5.97;;;;;;;11.45;52.19;100701.25;5000697;28;20779;-83
2023/04/09 10:49:40;;;;;;;11.55;6.60;;;;;;;11.48;51.41;100705.50;4982821;28;20056;-83
2023/04/09 10:52:09;;;;;;;11.10;4.85;;;;;;;11.54;52.35;100698.84;4969259;28;20132;-84
2023/04/09 10:54:45;;;;;;;10.15;5.60;;;;;;;11.61;52.86;100694.72;4996255;28;20064;-83
2023/04/09 10:57:12;;;;;;;8.13;4.95;;;;;;;11.68;52.41;100696.78;4979892;28;20072;-84
2023/04/09 10:59:41;;;;;;;8.23;4.85;;;;;;;11.75;52.35;100707.75;4996933;28;20053;-83
2023/04/09 11:02:29;;;;;;;11.07;5.70;;;;;;;11.80;52.23;100696.75;4992944;28;20493;-84
2023/04/09 11:05:11;;;;;;;10.85;6.03;;;;;;;11.65;47.17;100694.38;4989730;28;20034;-83
2023/04/09 11:07:40;;;;;;;14.57;6.90;;;;;;;11.75;50.83;100705.09;4992217;28;20127;-83
2023/04/09 11:10:07;;;;;;;9.40;5.40;;;;;;;11.81;51.57;100693.16;5024265;28;20048;-83
2023/04/09 11:12:34;;;;;;;8.50;5.05;;;;;;;11.85;51.27;100692.75;5002940;28;20052;-82
2023/04/09 11:15:00;;;;;;;8.15;5.13;;;;;;;11.90;51.36;100687.94;4963893;28;20064;-83
2023/04/09 11:17:27;;;;;;;8.07;5.00;;;;;;;11.92;51.08;100690.50;4993641;28;20064;-82
2023/04/09 11:19:54;;;;;;;7.85;4.40;;;;;;;11.95;51.61;100687.56;5008560;28;20120;-82
2023/04/09 11:22:21;;;;;;;8.85;4.55;;;;;;;11.97;51.67;100679.47;5010681;28;20049;-82
2023/04/09 11:24:49;;;;;;;9.07;5.00;;;;;;;11.87;48.26;100677.53;5011024;28;20126;-82
2023/04/09 11:27:18;;;;;;;8.50;4.25;;;;;;;11.97;50.38;100676.81;5006732;28;20046;-82